sensor_id;sensor_type;location;lat;lon;timestamp;P1;durP1;ratioP1;P2;durP2;ratioP2
54805;SDS011;62866;55.776;37.496;2023-05-10T00:00:20;6.22;;;3.45;;
54805;SDS011;62866;55.776;37.496;2023-05-10T00:02:47;6.63;;;3.28;;
54805;SDS011;62866;55.776;37.496;2023-05-10T00:05:13;8.43;;;3.90;;
54805;SDS011;62866;55.776;37.496;2023-05-10T00:07:38;6.00;;;3.30;;
54805;SDS011;62866;55.776;37.496;2023-05-10T00:10:04;6.70;;;3.20;;
54805;SDS011;62866;55.776;37.496;2023-05-10T00:12:30;5.22;;;3.00;;
54805;SDS011;62866;55.776;37.496;2023-05-10T00:14:55;6.80;;;3.25;;
54805;SDS011;62866;55.776;37.496;2023-05-10T00:17:21;7.70;;;3.33;;
54805;SDS011;62866;55.776;37.496;2023-05-10T00:19:47;8.13;;;3.08;;
54805;SDS011;62866;55.776;37.496;2023-05-10T00:22:13;7.43;;;3.33;;
54805;SDS011;62866;55.776;37.496;2023-05-10T00:24:38;9.63;;;3.13;;
54805;SDS011;62866;55.776;37.496;2023-05-10T00:27:04;5.97;;;3.47;;
54805;SDS011;62866;55.776;37.496;2023-05-10T00:29:29;6.55;;;3.13;;
54805;SDS011;62866;55.776;37.496;2023-05-10T00:31:56;6.43;;;2.85;;
54805;SDS011;62866;55.776;37.496;2023-05-10T00:34:22;6.72;;;2.97;;
54805;SDS011;62866;55.776;37.496;2023-05-10T00:36:47;6.93;;;2.90;;
54805;SDS011;62866;55.776;37.496;2023-05-10T00:39:13;5.78;;;3.05;;
54805;SDS011;62866;55.776;37.496;2023-05-10T00:41:38;5.78;;;3.05;;
54805;SDS011;62866;55.776;37.496;2023-05-10T00:44:04;7.43;;;3.28;;
54805;SDS011;62866;55.776;37.496;2023-05-10T00:46:30;5.60;;;3.08;;
54805;SDS011;62866;55.776;37.496;2023-05-10T00:48:56;5.40;;;3.08;;
54805;SDS011;62866;55.776;37.496;2023-05-10T00:51:22;5.55;;;2.92;;
54805;SDS011;62866;55.776;37.496;2023-05-10T00:53:48;6.93;;;3.50;;
54805;SDS011;62866;55.776;37.496;2023-05-10T00:56:14;7.75;;;3.28;;
54805;SDS011;62866;55.776;37.496;2023-05-10T00:58:40;6.55;;;3.05;;
54805;SDS011;62866;55.776;37.496;2023-05-10T01:01:07;8.18;;;3.15;;
54805;SDS011;62866;55.776;37.496;2023-05-10T01:03:34;4.95;;;3.40;;
54805;SDS011;62866;55.776;37.496;2023-05-10T01:06:01;5.53;;;2.97;;
54805;SDS011;62866;55.776;37.496;2023-05-10T01:08:26;7.78;;;3.35;;
54805;SDS011;62866;55.776;37.496;2023-05-10T01:10:53;7.63;;;3.28;;
54805;SDS011;62866;55.776;37.496;2023-05-10T01:13:24;4.85;;;2.65;;
54805;SDS011;62866;55.776;37.496;2023-05-10T01:15:54;5.97;;;3.25;;
54805;SDS011;62866;55.776;37.496;2023-05-10T01:18:20;8.35;;;3.50;;
54805;SDS011;62866;55.776;37.496;2023-05-10T01:20:47;5.68;;;3.20;;
54805;SDS011;62866;55.776;37.496;2023-05-10T01:25:55;5.72;;;3.10;;
54805;SDS011;62866;55.776;37.496;2023-05-10T01:28:51;6.72;;;2.90;;
54805;SDS011;62866;55.776;37.496;2023-05-10T01:34:34;5.43;;;2.90;;
54805;SDS011;62866;55.776;37.496;2023-05-10T01:37:06;6.80;;;3.28;;
54805;SDS011;62866;55.776;37.496;2023-05-10T01:40:23;5.47;;;3.22;;
54805;SDS011;62866;55.776;37.496;2023-05-10T01:42:46;6.28;;;3.00;;
54805;SDS011;62866;55.776;37.496;2023-05-10T01:50:35;5.88;;;3.13;;
54805;SDS011;62866;55.776;37.496;2023-05-10T01:53:04;6.72;;;3.22;;
54805;SDS011;62866;55.776;37.496;2023-05-10T01:55:34;5.68;;;3.00;;
54805;SDS011;62866;55.776;37.496;2023-05-10T01:58:13;7.35;;;2.80;;
54805;SDS011;62866;55.776;37.496;2023-05-10T02:00:40;5.05;;;3.08;;
54805;SDS011;62866;55.776;37.496;2023-05-10T02:03:09;4.38;;;2.88;;
54805;SDS011;62866;55.776;37.496;2023-05-10T02:05:37;5.53;;;3.13;;
54805;SDS011;62866;55.776;37.496;2023-05-10T02:08:06;6.18;;;3.55;;
54805;SDS011;62866;55.776;37.496;2023-05-10T02:10:36;6.43;;;3.10;;
54805;SDS011;62866;55.776;37.496;2023-05-10T02:13:04;6.38;;;3.05;;
54805;SDS011;62866;55.776;37.496;2023-05-10T02:15:31;5.88;;;3.25;;
54805;SDS011;62866;55.776;37.496;2023-05-10T02:17:58;4.57;;;2.80;;
54805;SDS011;62866;55.776;37.496;2023-05-10T02:20:27;4.97;;;2.95;;
54805;SDS011;62866;55.776;37.496;2023-05-10T02:22:54;5.45;;;3.08;;
54805;SDS011;62866;55.776;37.496;2023-05-10T02:25:23;7.63;;;3.35;;
54805;SDS011;62866;55.776;37.496;2023-05-10T02:27:49;6.00;;;2.83;;
54805;SDS011;62866;55.776;37.496;2023-05-10T02:30:17;6.20;;;3.42;;
54805;SDS011;62866;55.776;37.496;2023-05-10T02:32:44;6.72;;;3.35;;
54805;SDS011;62866;55.776;37.496;2023-05-10T02:35:11;6.72;;;3.88;;
54805;SDS011;62866;55.776;37.496;2023-05-10T02:37:37;12.27;;;4.65;;
54805;SDS011;62866;55.776;37.496;2023-05-10T02:40:05;6.93;;;4.05;;
54805;SDS011;62866;55.776;37.496;2023-05-10T02:42:32;10.02;;;3.35;;
54805;SDS011;62866;55.776;37.496;2023-05-10T02:45:01;5.07;;;2.80;;
54805;SDS011;62866;55.776;37.496;2023-05-10T02:47:30;5.75;;;3.05;;
54805;SDS011;62866;55.776;37.496;2023-05-10T02:49:56;4.95;;;2.88;;
54805;SDS011;62866;55.776;37.496;2023-05-10T02:52:23;8.02;;;3.03;;
54805;SDS011;62866;55.776;37.496;2023-05-10T02:54:54;4.90;;;3.10;;
54805;SDS011;62866;55.776;37.496;2023-05-10T02:57:26;9.18;;;3.53;;
54805;SDS011;62866;55.776;37.496;2023-05-10T02:59:55;5.78;;;3.33;;
54805;SDS011;62866;55.776;37.496;2023-05-10T03:02:21;7.20;;;3.20;;
54805;SDS011;62866;55.776;37.496;2023-05-10T03:04:46;6.35;;;3.33;;
54805;SDS011;62866;55.776;37.496;2023-05-10T03:07:12;4.28;;;2.70;;
54805;SDS011;62866;55.776;37.496;2023-05-10T03:09:38;6.18;;;2.97;;
54805;SDS011;62866;55.776;37.496;2023-05-10T03:12:15;7.47;;;3.35;;
54805;SDS011;62866;55.776;37.496;2023-05-10T03:18:07;6.97;;;3.13;;
54805;SDS011;62866;55.776;37.496;2023-05-10T03:20:38;5.18;;;2.67;;
54805;SDS011;62866;55.776;37.496;2023-05-10T03:23:11;6.03;;;3.60;;
54805;SDS011;62866;55.776;37.496;2023-05-10T03:25:37;5.45;;;2.97;;
54805;SDS011;62866;55.776;37.496;2023-05-10T03:28:05;8.93;;;3.20;;
54805;SDS011;62866;55.776;37.496;2023-05-10T03:30:31;5.82;;;2.80;;
54805;SDS011;62866;55.776;37.496;2023-05-10T03:32:57;6.72;;;3.35;;
54805;SDS011;62866;55.776;37.496;2023-05-10T03:35:28;5.50;;;3.13;;
54805;SDS011;62866;55.776;37.496;2023-05-10T03:37:54;6.18;;;3.10;;
54805;SDS011;62866;55.776;37.496;2023-05-10T03:40:20;4.65;;;3.22;;
54805;SDS011;62866;55.776;37.496;2023-05-10T03:42:45;5.47;;;2.88;;
54805;SDS011;62866;55.776;37.496;2023-05-10T03:45:11;7.20;;;3.08;;
54805;SDS011;62866;55.776;37.496;2023-05-10T03:47:36;7.22;;;2.92;;
54805;SDS011;62866;55.776;37.496;2023-05-10T03:50:02;6.97;;;3.65;;
54805;SDS011;62866;55.776;37.496;2023-05-10T03:52:28;5.47;;;2.60;;
54805;SDS011;62866;55.776;37.496;2023-05-10T03:54:53;6.60;;;3.42;;
54805;SDS011;62866;55.776;37.496;2023-05-10T03:57:19;7.80;;;3.15;;
54805;SDS011;62866;55.776;37.496;2023-05-10T03:59:44;7.50;;;3.22;;
54805;SDS011;62866;55.776;37.496;2023-05-10T04:02:10;7.50;;;3.45;;
54805;SDS011;62866;55.776;37.496;2023-05-10T04:04:35;6.18;;;3.22;;
54805;SDS011;62866;55.776;37.496;2023-05-10T04:07:01;5.35;;;3.65;;
54805;SDS011;62866;55.776;37.496;2023-05-10T04:09:26;6.78;;;2.80;;
54805;SDS011;62866;55.776;37.496;2023-05-10T04:11:52;5.63;;;3.42;;
54805;SDS011;62866;55.776;37.496;2023-05-10T04:14:17;5.03;;;2.90;;
54805;SDS011;62866;55.776;37.496;2023-05-10T04:16:43;5.50;;;3.28;;
54805;SDS011;62866;55.776;37.496;2023-05-10T04:19:09;9.25;;;2.70;;
54805;SDS011;62866;55.776;37.496;2023-05-10T04:21:34;8.45;;;3.50;;
54805;SDS011;62866;55.776;37.496;2023-05-10T04:24:00;6.75;;;3.15;;
54805;SDS011;62866;55.776;37.496;2023-05-10T04:26:25;6.13;;;3.22;;
54805;SDS011;62866;55.776;37.496;2023-05-10T04:28:51;9.18;;;3.30;;
54805;SDS011;62866;55.776;37.496;2023-05-10T04:31:16;4.68;;;2.88;;
54805;SDS011;62866;55.776;37.496;2023-05-10T04:33:42;6.22;;;3.30;;
54805;SDS011;62866;55.776;37.496;2023-05-10T04:36:07;7.00;;;3.00;;
54805;SDS011;62866;55.776;37.496;2023-05-10T04:38:33;5.18;;;2.53;;
54805;SDS011;62866;55.776;37.496;2023-05-10T04:41:08;6.25;;;3.10;;
54805;SDS011;62866;55.776;37.496;2023-05-10T04:43:34;6.18;;;3.03;;
54805;SDS011;62866;55.776;37.496;2023-05-10T04:46:00;7.75;;;2.95;;
54805;SDS011;62866;55.776;37.496;2023-05-10T04:48:26;5.03;;;2.80;;
54805;SDS011;62866;55.776;37.496;2023-05-10T04:50:52;7.13;;;2.88;;
54805;SDS011;62866;55.776;37.496;2023-05-10T04:53:17;6.28;;;3.00;;
54805;SDS011;62866;55.776;37.496;2023-05-10T04:55:43;6.90;;;2.80;;
54805;SDS011;62866;55.776;37.496;2023-05-10T04:58:08;5.82;;;2.80;;
54805;SDS011;62866;55.776;37.496;2023-05-10T05:00:33;7.18;;;2.90;;
54805;SDS011;62866;55.776;37.496;2023-05-10T05:02:59;8.07;;;3.83;;
54805;SDS011;62866;55.776;37.496;2023-05-10T05:05:25;8.05;;;3.50;;
54805;SDS011;62866;55.776;37.496;2023-05-10T05:07:50;4.80;;;3.03;;
54805;SDS011;62866;55.776;37.496;2023-05-10T05:10:16;6.30;;;3.22;;
54805;SDS011;62866;55.776;37.496;2023-05-10T05:12:41;8.63;;;3.47;;
54805;SDS011;62866;55.776;37.496;2023-05-10T05:15:07;6.35;;;3.30;;
54805;SDS011;62866;55.776;37.496;2023-05-10T05:17:34;6.78;;;3.15;;
54805;SDS011;62866;55.776;37.496;2023-05-10T05:20:00;8.43;;;2.95;;
54805;SDS011;62866;55.776;37.496;2023-05-10T05:22:26;4.10;;;2.72;;
54805;SDS011;62866;55.776;37.496;2023-05-10T05:24:56;6.07;;;3.08;;
54805;SDS011;62866;55.776;37.496;2023-05-10T05:27:23;7.35;;;3.15;;
54805;SDS011;62866;55.776;37.496;2023-05-10T05:29:52;7.70;;;3.08;;
54805;SDS011;62866;55.776;37.496;2023-05-10T05:32:18;4.15;;;2.38;;
54805;SDS011;62866;55.776;37.496;2023-05-10T05:34:44;5.90;;;3.00;;
54805;SDS011;62866;55.776;37.496;2023-05-10T05:37:14;6.35;;;2.90;;
54805;SDS011;62866;55.776;37.496;2023-05-10T05:39:40;5.78;;;2.58;;
54805;SDS011;62866;55.776;37.496;2023-05-10T05:42:05;7.72;;;2.83;;
54805;SDS011;62866;55.776;37.496;2023-05-10T05:44:31;5.40;;;2.63;;
54805;SDS011;62866;55.776;37.496;2023-05-10T05:46:56;7.72;;;2.90;;
54805;SDS011;62866;55.776;37.496;2023-05-10T05:49:22;9.75;;;2.75;;
54805;SDS011;62866;55.776;37.496;2023-05-10T05:51:47;8.27;;;2.92;;
54805;SDS011;62866;55.776;37.496;2023-05-10T05:54:15;4.78;;;2.47;;
54805;SDS011;62866;55.776;37.496;2023-05-10T05:56:41;4.70;;;2.35;;
54805;SDS011;62866;55.776;37.496;2023-05-10T05:59:06;5.57;;;2.60;;
54805;SDS011;62866;55.776;37.496;2023-05-10T06:01:33;4.20;;;2.20;;
54805;SDS011;62866;55.776;37.496;2023-05-10T06:03:58;3.85;;;2.25;;
54805;SDS011;62866;55.776;37.496;2023-05-10T06:06:24;6.75;;;2.33;;
54805;SDS011;62866;55.776;37.496;2023-05-10T06:08:49;6.57;;;2.78;;
54805;SDS011;62866;55.776;37.496;2023-05-10T06:11:15;3.78;;;1.98;;
54805;SDS011;62866;55.776;37.496;2023-05-10T06:13:40;4.90;;;2.05;;
54805;SDS011;62866;55.776;37.496;2023-05-10T06:16:07;5.50;;;2.00;;
54805;SDS011;62866;55.776;37.496;2023-05-10T06:18:32;4.70;;;2.20;;
54805;SDS011;62866;55.776;37.496;2023-05-10T06:20:58;3.75;;;2.10;;
54805;SDS011;62866;55.776;37.496;2023-05-10T06:23:24;2.75;;;2.00;;
54805;SDS011;62866;55.776;37.496;2023-05-10T06:25:50;3.58;;;2.05;;
54805;SDS011;62866;55.776;37.496;2023-05-10T06:28:16;5.30;;;2.20;;
54805;SDS011;62866;55.776;37.496;2023-05-10T06:30:42;7.03;;;2.15;;
54805;SDS011;62866;55.776;37.496;2023-05-10T06:33:08;2.92;;;2.10;;
54805;SDS011;62866;55.776;37.496;2023-05-10T06:35:33;2.80;;;2.03;;
54805;SDS011;62866;55.776;37.496;2023-05-10T06:37:59;21.88;;;2.70;;
54805;SDS011;62866;55.776;37.496;2023-05-10T06:40:25;3.30;;;1.67;;
54805;SDS011;62866;55.776;37.496;2023-05-10T06:42:51;4.43;;;1.70;;
54805;SDS011;62866;55.776;37.496;2023-05-10T06:45:16;5.10;;;2.30;;
54805;SDS011;62866;55.776;37.496;2023-05-10T06:47:42;3.25;;;2.03;;
54805;SDS011;62866;55.776;37.496;2023-05-10T06:50:08;3.80;;;1.98;;
54805;SDS011;62866;55.776;37.496;2023-05-10T06:52:34;3.35;;;2.00;;
54805;SDS011;62866;55.776;37.496;2023-05-10T06:55:00;3.25;;;1.80;;
54805;SDS011;62866;55.776;37.496;2023-05-10T06:57:26;2.17;;;1.58;;
54805;SDS011;62866;55.776;37.496;2023-05-10T06:59:52;4.00;;;2.17;;
54805;SDS011;62866;55.776;37.496;2023-05-10T07:02:18;2.72;;;1.75;;
54805;SDS011;62866;55.776;37.496;2023-05-10T07:04:43;2.83;;;1.70;;
54805;SDS011;62866;55.776;37.496;2023-05-10T07:07:09;2.80;;;1.45;;
54805;SDS011;62866;55.776;37.496;2023-05-10T07:09:35;5.10;;;1.90;;
54805;SDS011;62866;55.776;37.496;2023-05-10T07:12:00;3.45;;;1.40;;
54805;SDS011;62866;55.776;37.496;2023-05-10T07:14:27;4.28;;;1.85;;
54805;SDS011;62866;55.776;37.496;2023-05-10T07:16:52;2.85;;;1.77;;
54805;SDS011;62866;55.776;37.496;2023-05-10T07:19:18;3.50;;;1.70;;
54805;SDS011;62866;55.776;37.496;2023-05-10T07:21:44;3.15;;;1.80;;
54805;SDS011;62866;55.776;37.496;2023-05-10T07:24:10;5.22;;;1.70;;
54805;SDS011;62866;55.776;37.496;2023-05-10T07:26:36;2.83;;;1.63;;
54805;SDS011;62866;55.776;37.496;2023-05-10T07:29:02;3.95;;;1.88;;
54805;SDS011;62866;55.776;37.496;2023-05-10T07:31:27;5.60;;;1.85;;
54805;SDS011;62866;55.776;37.496;2023-05-10T07:33:53;3.13;;;1.48;;
54805;SDS011;62866;55.776;37.496;2023-05-10T07:36:18;3.67;;;1.90;;
54805;SDS011;62866;55.776;37.496;2023-05-10T07:38:44;3.58;;;1.77;;
54805;SDS011;62866;55.776;37.496;2023-05-10T07:41:11;5.95;;;1.85;;
54805;SDS011;62866;55.776;37.496;2023-05-10T07:43:37;4.55;;;1.83;;
54805;SDS011;62866;55.776;37.496;2023-05-10T07:46:03;4.50;;;1.95;;
54805;SDS011;62866;55.776;37.496;2023-05-10T07:48:29;3.60;;;1.90;;
54805;SDS011;62866;55.776;37.496;2023-05-10T07:50:54;4.47;;;2.15;;
54805;SDS011;62866;55.776;37.496;2023-05-10T07:53:20;3.67;;;2.13;;
54805;SDS011;62866;55.776;37.496;2023-05-10T07:55:53;4.88;;;2.10;;
54805;SDS011;62866;55.776;37.496;2023-05-10T07:58:23;8.95;;;2.58;;
54805;SDS011;62866;55.776;37.496;2023-05-10T08:00:48;4.15;;;1.70;;
54805;SDS011;62866;55.776;37.496;2023-05-10T08:03:14;2.55;;;1.80;;
54805;SDS011;62866;55.776;37.496;2023-05-10T08:05:40;2.53;;;1.80;;
54805;SDS011;62866;55.776;37.496;2023-05-10T08:08:06;1.77;;;1.67;;
54805;SDS011;62866;55.776;37.496;2023-05-10T08:10:31;2.65;;;1.85;;
54805;SDS011;62866;55.776;37.496;2023-05-10T08:12:57;3.25;;;1.48;;
54805;SDS011;62866;55.776;37.496;2023-05-10T08:15:23;2.28;;;1.48;;
54805;SDS011;62866;55.776;37.496;2023-05-10T08:17:52;2.47;;;1.67;;
54805;SDS011;62866;55.776;37.496;2023-05-10T08:20:17;3.40;;;1.65;;
54805;SDS011;62866;55.776;37.496;2023-05-10T08:22:46;2.42;;;1.63;;
54805;SDS011;62866;55.776;37.496;2023-05-10T08:25:12;2.85;;;1.83;;
54805;SDS011;62866;55.776;37.496;2023-05-10T08:27:37;2.67;;;1.55;;
54805;SDS011;62866;55.776;37.496;2023-05-10T08:30:03;2.60;;;1.83;;
54805;SDS011;62866;55.776;37.496;2023-05-10T08:32:29;3.88;;;2.85;;
54805;SDS011;62866;55.776;37.496;2023-05-10T08:34:54;4.88;;;1.98;;
54805;SDS011;62866;55.776;37.496;2023-05-10T08:37:23;6.40;;;2.10;;
54805;SDS011;62866;55.776;37.496;2023-05-10T08:39:48;1.70;;;1.60;;
54805;SDS011;62866;55.776;37.496;2023-05-10T08:42:15;3.00;;;2.03;;
54805;SDS011;62866;55.776;37.496;2023-05-10T08:44:44;4.13;;;1.98;;
54805;SDS011;62866;55.776;37.496;2023-05-10T08:47:10;3.22;;;2.10;;
54805;SDS011;62866;55.776;37.496;2023-05-10T08:49:37;4.78;;;1.90;;
54805;SDS011;62866;55.776;37.496;2023-05-10T08:52:03;2.63;;;1.77;;
54805;SDS011;62866;55.776;37.496;2023-05-10T08:54:32;1.58;;;1.48;;
54805;SDS011;62866;55.776;37.496;2023-05-10T08:56:58;2.60;;;1.45;;
54805;SDS011;62866;55.776;37.496;2023-05-10T08:59:24;2.20;;;1.27;;
54805;SDS011;62866;55.776;37.496;2023-05-10T09:01:50;2.28;;;1.52;;
54805;SDS011;62866;55.776;37.496;2023-05-10T09:04:19;2.75;;;1.60;;
54805;SDS011;62866;55.776;37.496;2023-05-10T09:06:45;2.78;;;1.50;;
54805;SDS011;62866;55.776;37.496;2023-05-10T09:09:11;3.47;;;2.08;;
54805;SDS011;62866;55.776;37.496;2023-05-10T09:11:37;5.53;;;1.75;;
54805;SDS011;62866;55.776;37.496;2023-05-10T09:14:02;1.55;;;1.30;;
54805;SDS011;62866;55.776;37.496;2023-05-10T09:16:28;2.42;;;1.23;;
54805;SDS011;62866;55.776;37.496;2023-05-10T09:18:54;1.20;;;0.90;;
54805;SDS011;62866;55.776;37.496;2023-05-10T09:21:19;1.15;;;1.02;;
54805;SDS011;62866;55.776;37.496;2023-05-10T09:23:45;1.63;;;0.90;;
54805;SDS011;62866;55.776;37.496;2023-05-10T09:26:11;2.25;;;1.40;;
54805;SDS011;62866;55.776;37.496;2023-05-10T09:31:16;2.35;;;1.63;;
54805;SDS011;62866;55.776;37.496;2023-05-10T09:33:45;1.65;;;1.00;;
54805;SDS011;62866;55.776;37.496;2023-05-10T09:36:12;1.40;;;1.10;;
54805;SDS011;62866;55.776;37.496;2023-05-10T09:38:51;1.55;;;1.30;;
54805;SDS011;62866;55.776;37.496;2023-05-10T09:43:44;1.65;;;1.55;;
54805;SDS011;62866;55.776;37.496;2023-05-10T09:46:09;2.53;;;1.60;;
54805;SDS011;62866;55.776;37.496;2023-05-10T09:48:40;3.47;;;1.73;;
54805;SDS011;62866;55.776;37.496;2023-05-10T09:51:22;4.25;;;1.80;;
54805;SDS011;62866;55.776;37.496;2023-05-10T09:56:38;2.85;;;1.52;;
54805;SDS011;62866;55.776;37.496;2023-05-10T09:59:05;3.17;;;2.00;;
54805;SDS011;62866;55.776;37.496;2023-05-10T10:01:33;3.08;;;1.50;;
54805;SDS011;62866;55.776;37.496;2023-05-10T10:04:02;3.53;;;1.88;;
54805;SDS011;62866;55.776;37.496;2023-05-10T10:06:29;3.33;;;2.00;;
54805;SDS011;62866;55.776;37.496;2023-05-10T10:09:00;2.63;;;1.73;;
54805;SDS011;62866;55.776;37.496;2023-05-10T10:11:25;4.60;;;1.70;;
54805;SDS011;62866;55.776;37.496;2023-05-10T10:13:51;3.38;;;1.67;;
54805;SDS011;62866;55.776;37.496;2023-05-10T10:16:16;2.25;;;1.40;;
54805;SDS011;62866;55.776;37.496;2023-05-10T10:18:42;3.90;;;1.52;;
54805;SDS011;62866;55.776;37.496;2023-05-10T10:21:08;2.20;;;1.50;;
54805;SDS011;62866;55.776;37.496;2023-05-10T10:23:34;2.67;;;1.33;;
54805;SDS011;62866;55.776;37.496;2023-05-10T10:26:01;3.40;;;2.20;;
54805;SDS011;62866;55.776;37.496;2023-05-10T10:28:34;1.90;;;1.30;;
54805;SDS011;62866;55.776;37.496;2023-05-10T10:31:17;2.00;;;1.42;;
54805;SDS011;62866;55.776;37.496;2023-05-10T10:34:00;6.90;;;2.17;;
54805;SDS011;62866;55.776;37.496;2023-05-10T10:36:30;4.88;;;1.65;;
54805;SDS011;62866;55.776;37.496;2023-05-10T10:38:58;1.35;;;1.25;;
54805;SDS011;62866;55.776;37.496;2023-05-10T10:41:29;2.25;;;1.38;;
54805;SDS011;62866;55.776;37.496;2023-05-10T10:46:59;4.97;;;1.30;;
54805;SDS011;62866;55.776;37.496;2023-05-10T10:49:38;2.75;;;1.15;;
54805;SDS011;62866;55.776;37.496;2023-05-10T11:02:51;2.95;;;1.90;;
54805;SDS011;62866;55.776;37.496;2023-05-10T11:06:00;2.00;;;1.35;;
54805;SDS011;62866;55.776;37.496;2023-05-10T11:08:08;3.03;;;1.33;;
54805;SDS011;62866;55.776;37.496;2023-05-10T11:10:35;2.67;;;1.40;;
54805;SDS011;62866;55.776;37.496;2023-05-10T11:15:33;1.85;;;1.50;;
54805;SDS011;62866;55.776;37.496;2023-05-10T11:20:43;2.63;;;1.33;;
54805;SDS011;62866;55.776;37.496;2023-05-10T11:23:15;3.58;;;1.52;;
54805;SDS011;62866;55.776;37.496;2023-05-10T11:25:47;3.22;;;1.38;;
54805;SDS011;62866;55.776;37.496;2023-05-10T11:28:13;2.92;;;1.52;;
54805;SDS011;62866;55.776;37.496;2023-05-10T11:30:39;1.75;;;1.23;;
54805;SDS011;62866;55.776;37.496;2023-05-10T11:33:06;1.98;;;1.35;;
54805;SDS011;62866;55.776;37.496;2023-05-10T11:35:39;2.88;;;1.40;;
54805;SDS011;62866;55.776;37.496;2023-05-10T11:38:12;1.83;;;1.33;;
54805;SDS011;62866;55.776;37.496;2023-05-10T11:40:39;3.25;;;1.50;;
54805;SDS011;62866;55.776;37.496;2023-05-10T11:43:05;1.52;;;1.25;;
54805;SDS011;62866;55.776;37.496;2023-05-10T11:45:32;3.08;;;1.40;;
54805;SDS011;62866;55.776;37.496;2023-05-10T11:47:58;2.25;;;1.58;;
54805;SDS011;62866;55.776;37.496;2023-05-10T11:50:24;1.92;;;1.27;;
54805;SDS011;62866;55.776;37.496;2023-05-10T11:52:52;3.85;;;1.40;;
54805;SDS011;62866;55.776;37.496;2023-05-10T11:55:18;1.65;;;1.20;;
54805;SDS011;62866;55.776;37.496;2023-05-10T11:57:44;2.25;;;1.50;;
54805;SDS011;62866;55.776;37.496;2023-05-10T12:00:11;3.42;;;1.33;;
54805;SDS011;62866;55.776;37.496;2023-05-10T12:02:38;3.50;;;1.40;;
54805;SDS011;62866;55.776;37.496;2023-05-10T12:05:04;2.47;;;1.00;;
54805;SDS011;62866;55.776;37.496;2023-05-10T12:07:30;3.92;;;1.70;;
54805;SDS011;62866;55.776;37.496;2023-05-10T12:10:05;1.83;;;1.10;;
54805;SDS011;62866;55.776;37.496;2023-05-10T12:12:44;1.45;;;1.25;;
54805;SDS011;62866;55.776;37.496;2023-05-10T12:15:20;2.45;;;1.42;;
54805;SDS011;62866;55.776;37.496;2023-05-10T12:17:47;3.05;;;1.08;;
54805;SDS011;62866;55.776;37.496;2023-05-10T12:20:17;3.00;;;1.20;;
54805;SDS011;62866;55.776;37.496;2023-05-10T12:22:45;2.00;;;1.27;;
54805;SDS011;62866;55.776;37.496;2023-05-10T12:25:14;1.48;;;1.27;;
54805;SDS011;62866;55.776;37.496;2023-05-10T12:27:39;1.55;;;1.20;;
54805;SDS011;62866;55.776;37.496;2023-05-10T12:30:05;1.80;;;1.10;;
54805;SDS011;62866;55.776;37.496;2023-05-10T12:32:38;7.32;;;1.85;;
54805;SDS011;62866;55.776;37.496;2023-05-10T12:35:04;2.10;;;1.25;;
54805;SDS011;62866;55.776;37.496;2023-05-10T12:37:30;1.52;;;1.20;;
54805;SDS011;62866;55.776;37.496;2023-05-10T12:40:00;2.85;;;1.13;;
54805;SDS011;62866;55.776;37.496;2023-05-10T12:42:27;4.28;;;1.42;;
54805;SDS011;62866;55.776;37.496;2023-05-10T12:44:56;4.35;;;1.05;;
54805;SDS011;62866;55.776;37.496;2023-05-10T12:47:22;1.63;;;1.30;;
54805;SDS011;62866;55.776;37.496;2023-05-10T12:49:48;3.78;;;1.48;;
54805;SDS011;62866;55.776;37.496;2023-05-10T12:52:13;2.28;;;1.55;;
54805;SDS011;62866;55.776;37.496;2023-05-10T12:54:39;4.25;;;1.60;;
54805;SDS011;62866;55.776;37.496;2023-05-10T12:57:04;3.88;;;1.40;;
54805;SDS011;62866;55.776;37.496;2023-05-10T12:59:30;2.42;;;1.40;;
54805;SDS011;62866;55.776;37.496;2023-05-10T13:01:56;3.10;;;1.20;;
54805;SDS011;62866;55.776;37.496;2023-05-10T13:04:22;2.47;;;1.20;;
54805;SDS011;62866;55.776;37.496;2023-05-10T13:06:48;2.03;;;1.48;;
54805;SDS011;62866;55.776;37.496;2023-05-10T13:09:13;1.55;;;1.10;;
54805;SDS011;62866;55.776;37.496;2023-05-10T13:11:39;1.60;;;1.38;;
54805;SDS011;62866;55.776;37.496;2023-05-10T13:14:05;1.90;;;1.10;;
54805;SDS011;62866;55.776;37.496;2023-05-10T13:16:30;2.65;;;1.52;;
54805;SDS011;62866;55.776;37.496;2023-05-10T13:18:56;2.55;;;1.48;;
54805;SDS011;62866;55.776;37.496;2023-05-10T13:21:22;1.48;;;1.20;;
54805;SDS011;62866;55.776;37.496;2023-05-10T13:23:49;2.90;;;1.20;;
54805;SDS011;62866;55.776;37.496;2023-05-10T13:26:15;3.10;;;1.42;;
54805;SDS011;62866;55.776;37.496;2023-05-10T13:28:40;2.75;;;1.45;;
54805;SDS011;62866;55.776;37.496;2023-05-10T13:31:06;1.80;;;1.50;;
54805;SDS011;62866;55.776;37.496;2023-05-10T13:33:31;2.25;;;1.30;;
54805;SDS011;62866;55.776;37.496;2023-05-10T13:35:57;1.67;;;1.10;;
54805;SDS011;62866;55.776;37.496;2023-05-10T13:38:22;2.85;;;1.10;;
54805;SDS011;62866;55.776;37.496;2023-05-10T13:40:48;4.38;;;1.73;;
54805;SDS011;62866;55.776;37.496;2023-05-10T13:43:17;2.60;;;1.33;;
54805;SDS011;62866;55.776;37.496;2023-05-10T13:45:43;3.78;;;1.40;;
54805;SDS011;62866;55.776;37.496;2023-05-10T13:48:09;2.05;;;1.20;;
54805;SDS011;62866;55.776;37.496;2023-05-10T13:50:34;1.77;;;1.38;;
54805;SDS011;62866;55.776;37.496;2023-05-10T13:53:00;3.22;;;1.50;;
54805;SDS011;62866;55.776;37.496;2023-05-10T13:55:25;2.22;;;1.42;;
54805;SDS011;62866;55.776;37.496;2023-05-10T13:57:51;2.40;;;1.20;;
54805;SDS011;62866;55.776;37.496;2023-05-10T14:00:16;3.42;;;1.77;;
54805;SDS011;62866;55.776;37.496;2023-05-10T14:02:42;2.95;;;1.50;;
54805;SDS011;62866;55.776;37.496;2023-05-10T14:05:08;1.73;;;1.30;;
54805;SDS011;62866;55.776;37.496;2023-05-10T14:07:33;2.78;;;1.30;;
54805;SDS011;62866;55.776;37.496;2023-05-10T14:09:59;2.05;;;1.70;;
54805;SDS011;62866;55.776;37.496;2023-05-10T14:12:25;2.15;;;1.50;;
54805;SDS011;62866;55.776;37.496;2023-05-10T14:14:51;4.75;;;1.77;;
54805;SDS011;62866;55.776;37.496;2023-05-10T14:17:17;2.22;;;1.45;;
54805;SDS011;62866;55.776;37.496;2023-05-10T14:19:42;3.53;;;1.17;;
54805;SDS011;62866;55.776;37.496;2023-05-10T14:22:08;1.83;;;1.20;;
54805;SDS011;62866;55.776;37.496;2023-05-10T14:24:34;1.67;;;1.20;;
54805;SDS011;62866;55.776;37.496;2023-05-10T14:26:59;1.92;;;1.50;;
54805;SDS011;62866;55.776;37.496;2023-05-10T14:29:25;2.92;;;1.90;;
54805;SDS011;62866;55.776;37.496;2023-05-10T14:31:51;1.67;;;1.20;;
54805;SDS011;62866;55.776;37.496;2023-05-10T14:34:16;2.42;;;1.30;;
54805;SDS011;62866;55.776;37.496;2023-05-10T14:36:42;2.03;;;1.50;;
54805;SDS011;62866;55.776;37.496;2023-05-10T14:39:08;2.67;;;1.20;;
54805;SDS011;62866;55.776;37.496;2023-05-10T14:41:35;1.85;;;1.40;;
54805;SDS011;62866;55.776;37.496;2023-05-10T14:44:00;3.05;;;1.48;;
54805;SDS011;62866;55.776;37.496;2023-05-10T14:46:28;2.13;;;1.77;;
54805;SDS011;62866;55.776;37.496;2023-05-10T14:48:54;1.75;;;1.40;;
54805;SDS011;62866;55.776;37.496;2023-05-10T14:51:20;1.95;;;1.20;;
54805;SDS011;62866;55.776;37.496;2023-05-10T14:53:47;3.03;;;1.38;;
54805;SDS011;62866;55.776;37.496;2023-05-10T14:56:14;2.47;;;1.30;;
54805;SDS011;62866;55.776;37.496;2023-05-10T14:58:41;6.00;;;1.40;;
54805;SDS011;62866;55.776;37.496;2023-05-10T15:01:06;2.35;;;1.13;;
54805;SDS011;62866;55.776;37.496;2023-05-10T15:03:32;3.38;;;1.45;;
54805;SDS011;62866;55.776;37.496;2023-05-10T15:05:57;2.58;;;1.20;;
54805;SDS011;62866;55.776;37.496;2023-05-10T15:08:23;2.67;;;1.17;;
54805;SDS011;62866;55.776;37.496;2023-05-10T15:10:49;5.40;;;1.63;;
54805;SDS011;62866;55.776;37.496;2023-05-10T15:13:16;6.88;;;1.73;;